createdAt,value
2019-04-30T00:01:59.802Z,99.90
2019-04-30T00:04:40.982Z,99.90
2019-04-30T00:07:10.185Z,99.90
2019-04-30T00:09:44.936Z,99.90
2019-04-30T00:12:15.701Z,99.90
2019-04-30T00:14:45.373Z,99.90
2019-04-30T00:17:15.801Z,99.90
2019-04-30T00:19:46.045Z,99.90
2019-04-30T00:22:15.805Z,99.90
2019-04-30T00:24:49.829Z,99.90
2019-04-30T00:27:21.079Z,99.90
2019-04-30T00:29:48.609Z,99.90
2019-04-30T00:32:18.348Z,99.90
2019-04-30T00:34:46.918Z,99.90
2019-04-30T00:37:18.792Z,99.90
2019-04-30T00:39:50.845Z,99.90
2019-04-30T00:42:24.492Z,99.90
2019-04-30T00:44:49.298Z,99.90
2019-04-30T00:47:18.246Z,99.90
2019-04-30T00:49:47.283Z,99.90
2019-04-30T00:52:16.244Z,99.90
2019-04-30T00:54:45.228Z,99.90
2019-04-30T00:57:15.150Z,99.90
2019-04-30T00:59:47.947Z,99.90
2019-04-30T01:02:27.625Z,99.90
2019-04-30T01:04:50.972Z,99.90
2019-04-30T01:07:18.910Z,99.90
2019-04-30T01:09:49.930Z,99.90
2019-04-30T01:12:27.650Z,99.90
2019-04-30T01:14:49.753Z,99.90
2019-04-30T01:17:18.885Z,99.90
2019-04-30T01:19:53.068Z,99.90
2019-04-30T01:22:21.213Z,99.90
2019-04-30T01:24:49.634Z,99.90
2019-04-30T01:27:19.351Z,99.90
2019-04-30T01:30:01.146Z,99.90
2019-04-30T01:32:30.274Z,99.90
2019-04-30T01:34:59.040Z,99.90
2019-04-30T01:37:29.572Z,99.90
2019-04-30T01:39:58.916Z,99.90
2019-04-30T01:42:28.450Z,99.90
2019-04-30T01:44:58.862Z,99.90
2019-04-30T01:47:28.845Z,99.90
2019-04-30T01:50:01.020Z,99.90
2019-04-30T01:52:35.223Z,99.90
2019-04-30T01:54:59.917Z,99.90
2019-04-30T01:57:30.211Z,99.90
2019-04-30T02:00:11.949Z,99.90
2019-04-30T02:02:45.144Z,99.90
2019-04-30T02:05:13.770Z,99.90
2019-04-30T02:07:42.397Z,99.90
2019-04-30T02:10:11.076Z,99.90
2019-04-30T02:12:39.821Z,99.90
2019-04-30T02:15:09.483Z,99.90
2019-04-30T02:17:38.872Z,99.90
2019-04-30T02:20:08.877Z,99.90
2019-04-30T02:22:39.086Z,99.90
2019-04-30T02:25:09.465Z,99.90
2019-04-30T02:27:39.021Z,99.90
2019-04-30T02:30:11.265Z,99.90
2019-04-30T02:32:39.538Z,99.90
2019-04-30T02:35:25.484Z,99.90
2019-04-30T02:38:14.253Z,99.90
2019-04-30T02:40:43.057Z,99.90
2019-04-30T02:43:15.846Z,99.90
2019-04-30T02:45:44.229Z,99.90
2019-04-30T02:48:19.284Z,99.90
2019-04-30T02:50:49.118Z,99.90
2019-04-30T02:53:51.961Z,99.90
2019-04-30T02:56:21.437Z,99.90
2019-04-30T02:58:50.558Z,99.90
2019-04-30T03:01:20.240Z,99.90
2019-04-30T03:03:50.059Z,99.90
2019-04-30T03:06:20.505Z,99.90
2019-04-30T03:08:50.703Z,99.90
2019-04-30T03:11:20.618Z,99.90
2019-04-30T03:13:49.493Z,99.90
2019-04-30T03:16:20.984Z,99.90
2019-04-30T03:18:53.936Z,99.90
2019-04-30T03:21:40.979Z,99.90
2019-04-30T03:24:11.160Z,99.90
2019-04-30T03:26:40.448Z,99.90
2019-04-30T03:29:17.058Z,99.90
2019-04-30T03:31:45.933Z,99.90
2019-04-30T03:34:24.154Z,99.90
2019-04-30T03:36:44.874Z,99.90
2019-04-30T03:39:13.948Z,99.90
2019-04-30T03:41:43.416Z,99.90
2019-04-30T03:44:21.660Z,99.90
2019-04-30T03:46:42.777Z,99.90
2019-04-30T03:49:13.305Z,99.90
2019-04-30T03:51:42.410Z,99.90
2019-04-30T03:54:11.089Z,99.90
2019-04-30T03:56:41.390Z,99.90
2019-04-30T03:59:10.831Z,99.90
2019-04-30T04:01:50.439Z,99.90
2019-04-30T04:04:32.583Z,99.90
2019-04-30T04:07:11.932Z,99.90
2019-04-30T04:09:49.904Z,99.90
2019-04-30T04:12:22.913Z,99.90
2019-04-30T04:14:51.855Z,99.90
2019-04-30T04:17:22.604Z,99.90
2019-04-30T04:19:54.429Z,99.90
2019-04-30T04:22:26.453Z,99.90
2019-04-30T04:24:55.352Z,99.90
2019-04-30T04:27:25.329Z,99.90
2019-04-30T04:29:53.220Z,99.90
2019-04-30T04:32:24.251Z,99.90
2019-04-30T04:35:02.962Z,99.90
2019-04-30T04:37:31.894Z,99.90
2019-04-30T04:40:00.434Z,99.90
2019-04-30T04:42:33.175Z,99.90
2019-04-30T04:45:02.439Z,99.90
2019-04-30T04:47:34.446Z,99.90
2019-04-30T04:50:15.890Z,99.90
2019-04-30T04:52:44.758Z,99.90
2019-04-30T04:55:13.243Z,99.90
2019-04-30T04:57:43.459Z,99.90
2019-04-30T05:00:12.110Z,99.90
2019-04-30T05:02:55.269Z,99.90
2019-04-30T05:05:23.662Z,99.90
2019-04-30T05:07:53.924Z,99.90
2019-04-30T05:10:22.731Z,99.90
2019-04-30T05:12:51.273Z,99.90
2019-04-30T05:15:20.768Z,99.90
2019-04-30T05:17:50.990Z,99.90
2019-04-30T05:20:39.914Z,99.90
2019-04-30T05:23:12.247Z,99.90
2019-04-30T05:25:43.924Z,99.90
2019-04-30T05:28:12.666Z,99.90
2019-04-30T05:30:40.552Z,99.90
2019-04-30T05:33:09.726Z,99.90
2019-04-30T05:35:38.958Z,99.90
2019-04-30T05:38:09.461Z,99.90
2019-04-30T05:40:42.430Z,99.90
2019-04-30T05:43:11.325Z,99.90
2019-04-30T05:45:39.939Z,99.90
2019-04-30T05:48:08.905Z,99.90
2019-04-30T05:50:39.100Z,99.90
2019-04-30T05:53:10.941Z,99.90
2019-04-30T05:55:39.868Z,99.90
2019-04-30T05:58:09.475Z,99.90
2019-04-30T06:00:41.639Z,99.90
2019-04-30T06:03:24.957Z,99.90
2019-04-30T06:05:46.233Z,99.90
2019-04-30T06:08:19.204Z,99.90
2019-04-30T06:10:51.730Z,99.90
2019-04-30T06:13:35.360Z,99.90
2019-04-30T06:16:08.857Z,99.90
2019-04-30T06:18:42.215Z,99.90
2019-04-30T06:21:10.567Z,99.90
2019-04-30T06:23:42.489Z,99.90
2019-04-30T06:26:15.021Z,99.90
2019-04-30T06:28:43.817Z,99.90
2019-04-30T06:31:31.819Z,99.90
2019-04-30T06:33:54.788Z,99.90
2019-04-30T06:36:23.385Z,99.90
2019-04-30T06:38:51.977Z,99.90
2019-04-30T06:41:23.975Z,99.90
2019-04-30T06:43:53.339Z,99.90
2019-04-30T06:46:22.194Z,99.90
2019-04-30T06:48:53.308Z,99.90
2019-04-30T06:51:22.168Z,99.90
2019-04-30T06:53:51.460Z,99.90
2019-04-30T06:56:20.382Z,99.90
2019-04-30T06:58:52.674Z,99.90
2019-04-30T07:01:22.471Z,99.90
2019-04-30T07:03:58.888Z,99.90
2019-04-30T07:06:32.539Z,99.90
2019-04-30T07:09:19.793Z,99.90
2019-04-30T07:12:09.409Z,99.90
2019-04-30T07:14:42.172Z,99.90
2019-04-30T07:17:20.559Z,99.90
2019-04-30T07:19:54.281Z,99.90
2019-04-30T07:22:36.488Z,99.90
2019-04-30T07:24:53.525Z,99.90
2019-04-30T07:27:24.192Z,99.90
2019-04-30T07:29:53.598Z,99.90
2019-04-30T07:32:24.691Z,99.90
2019-04-30T07:34:56.594Z,99.90
2019-04-30T07:37:25.231Z,99.90
2019-04-30T07:40:01.133Z,99.90
2019-04-30T07:42:30.968Z,99.90
2019-04-30T07:45:04.941Z,99.90
2019-04-30T07:47:39.605Z,99.90
2019-04-30T07:50:16.421Z,99.90
2019-04-30T07:53:01.584Z,99.90
2019-04-30T07:55:32.737Z,99.90
2019-04-30T07:58:15.025Z,99.70
2019-04-30T08:00:46.397Z,99.40
2019-04-30T08:03:39.526Z,99.60
2019-04-30T08:06:10.351Z,99.80
2019-04-30T08:08:45.937Z,99.80
2019-04-30T08:11:23.806Z,99.20
2019-04-30T08:13:49.523Z,98.80
2019-04-30T08:16:19.546Z,99.50
2019-04-30T08:18:49.232Z,98.90
2019-04-30T08:21:19.390Z,98.60
2019-04-30T08:23:53.468Z,98.70
2019-04-30T08:26:22.482Z,98.70
2019-04-30T08:28:51.329Z,98.60
2019-04-30T08:31:29.065Z,98.30
2019-04-30T08:33:59.233Z,98.50
2019-04-30T08:36:29.641Z,97.80
2019-04-30T08:38:59.668Z,97.60
2019-04-30T08:41:29.381Z,96.90
2019-04-30T08:43:59.793Z,96.70
2019-04-30T08:46:29.470Z,95.10
2019-04-30T08:48:59.334Z,95.20
2019-04-30T08:51:31.038Z,95.50
2019-04-30T08:53:59.223Z,96.20
2019-04-30T08:56:29.624Z,96.80
2019-04-30T08:58:59.435Z,96.90
2019-04-30T09:01:30.735Z,97.10
2019-04-30T09:04:00.158Z,97.50
2019-04-30T09:06:30.727Z,97.80
2019-04-30T09:09:00.304Z,97.20
2019-04-30T09:11:35.472Z,97.40
2019-04-30T09:13:59.999Z,97.40
2019-04-30T09:16:39.325Z,97.50
2019-04-30T09:19:09.762Z,97.20
2019-04-30T09:21:40.579Z,97.70
2019-04-30T09:24:09.620Z,97.30
2019-04-30T09:26:39.180Z,97.20
2019-04-30T09:29:11.414Z,97.00
2019-04-30T09:31:41.049Z,96.40
2019-04-30T09:34:17.164Z,94.70
2019-04-30T09:36:39.993Z,95.40
2019-04-30T09:39:09.100Z,95.10
2019-04-30T09:41:40.978Z,95.30
2019-04-30T09:44:10.132Z,94.80
2019-04-30T09:46:40.264Z,94.50
2019-04-30T09:49:09.623Z,94.80
2019-04-30T09:51:39.382Z,95.30
2019-04-30T09:54:11.709Z,95.90
2019-04-30T09:56:39.406Z,96.60
2019-04-30T09:59:09.125Z,96.00
2019-04-30T10:01:38.480Z,96.10
2019-04-30T10:04:12.872Z,95.80
2019-04-30T10:06:43.338Z,96.10
2019-04-30T10:09:16.361Z,95.10
2019-04-30T10:11:50.855Z,95.10
2019-04-30T10:14:24.133Z,94.70
2019-04-30T10:17:10.255Z,95.20
2019-04-30T10:19:39.388Z,95.70
2019-04-30T10:22:08.992Z,94.20
2019-04-30T10:24:39.299Z,94.60
2019-04-30T10:27:13.046Z,94.30
2019-04-30T10:29:41.233Z,94.10
2019-04-30T10:32:10.621Z,94.50
2019-04-30T10:34:39.219Z,94.10
2019-04-30T10:37:09.434Z,93.60
2019-04-30T10:39:40.231Z,93.80
2019-04-30T10:42:08.937Z,93.00
2019-04-30T10:44:38.459Z,92.50
2019-04-30T10:47:09.242Z,91.60
2019-04-30T10:49:38.910Z,91.70
2019-04-30T10:52:09.716Z,92.30
2019-04-30T10:54:42.524Z,92.70
2019-04-30T10:57:11.471Z,92.80
2019-04-30T10:59:40.460Z,93.10
2019-04-30T11:02:09.279Z,92.50
2019-04-30T11:04:38.234Z,91.90
2019-04-30T11:07:09.081Z,91.70
2019-04-30T11:09:39.323Z,92.40
2019-04-30T11:12:10.145Z,91.10
2019-04-30T11:14:39.987Z,90.20
2019-04-30T11:17:10.423Z,89.80
2019-04-30T11:19:39.294Z,89.20
2019-04-30T11:22:08.387Z,90.30
2019-04-30T11:24:55.564Z,87.40
2019-04-30T11:27:11.474Z,86.90
2019-04-30T11:29:49.464Z,84.40
2019-04-30T11:32:23.107Z,79.30
2019-04-30T11:34:55.350Z,78.00
2019-04-30T11:37:27.588Z,77.10
2019-04-30T11:39:58.314Z,81.90
2019-04-30T11:42:38.947Z,80.70
2019-04-30T11:45:11.333Z,82.10
2019-04-30T11:47:53.042Z,83.60
2019-04-30T11:50:22.245Z,87.70
2019-04-30T11:53:14.019Z,90.00
2019-04-30T11:55:29.157Z,91.20
2019-04-30T11:57:59.237Z,91.50
2019-04-30T12:00:30.452Z,91.70
2019-04-30T12:03:04.396Z,91.90
2019-04-30T12:05:34.173Z,92.40
2019-04-30T12:08:23.326Z,92.70
2019-04-30T12:10:53.707Z,93.50
2019-04-30T12:13:27.596Z,95.00
2019-04-30T12:15:58.873Z,94.60
2019-04-30T12:18:27.707Z,94.50
2019-04-30T12:20:58.600Z,94.60
2019-04-30T12:23:29.027Z,93.70
2019-04-30T12:26:02.475Z,93.80
2019-04-30T12:28:30.272Z,92.50
2019-04-30T12:31:01.164Z,92.00
2019-04-30T12:33:37.078Z,89.40
2019-04-30T12:36:10.963Z,89.30
2019-04-30T12:38:42.131Z,86.40
2019-04-30T12:41:13.197Z,88.50
2019-04-30T12:43:44.219Z,89.10
2019-04-30T12:46:12.676Z,90.40
2019-04-30T12:48:49.384Z,90.80
2019-04-30T12:51:22.426Z,91.60
2019-04-30T12:53:55.542Z,92.90
2019-04-30T12:56:41.227Z,93.40
2019-04-30T12:59:16.349Z,93.20
2019-04-30T13:01:49.681Z,93.30
2019-04-30T13:04:25.236Z,92.80
2019-04-30T13:06:54.889Z,92.30
2019-04-30T13:09:25.597Z,91.40
2019-04-30T13:11:55.743Z,90.70
2019-04-30T13:14:30.108Z,87.70
2019-04-30T13:16:59.114Z,90.70
2019-04-30T13:19:29.190Z,88.50
2019-04-30T13:21:59.602Z,89.50
2019-04-30T13:24:40.767Z,88.70
2019-04-30T13:27:09.703Z,89.40
2019-04-30T13:29:56.654Z,89.10
2019-04-30T13:32:30.191Z,88.70
2019-04-30T13:35:02.891Z,85.10
2019-04-30T13:37:39.860Z,85.00
2019-04-30T13:40:25.487Z,85.20
2019-04-30T13:42:56.709Z,84.00
2019-04-30T13:45:25.930Z,83.50
2019-04-30T13:47:54.642Z,87.90
2019-04-30T13:50:29.233Z,85.50
2019-04-30T13:53:01.768Z,86.70
2019-04-30T13:55:43.732Z,87.80
2019-04-30T13:58:05.949Z,90.80
2019-04-30T14:00:39.707Z,90.80
2019-04-30T14:03:10.108Z,91.20
2019-04-30T14:05:39.435Z,92.00
2019-04-30T14:08:25.882Z,91.60
2019-04-30T14:10:55.039Z,92.20
2019-04-30T14:13:28.594Z,92.40
2019-04-30T14:16:01.029Z,90.50
2019-04-30T14:18:33.908Z,89.40
2019-04-30T14:21:01.505Z,90.10
2019-04-30T14:23:30.474Z,90.90
2019-04-30T14:26:01.225Z,91.30
2019-04-30T14:28:30.502Z,90.60
2019-04-30T14:30:59.017Z,89.60
2019-04-30T14:33:29.248Z,90.80
2019-04-30T14:36:00.581Z,89.70
2019-04-30T14:38:28.078Z,90.00
2019-04-30T14:40:56.996Z,90.10
2019-04-30T14:43:33.603Z,90.20
2019-04-30T14:46:09.852Z,88.40
2019-04-30T14:48:43.974Z,87.10
2019-04-30T14:51:13.449Z,88.00
2019-04-30T14:53:43.538Z,87.00
2019-04-30T14:56:23.595Z,89.70
2019-04-30T14:58:56.130Z,88.50
2019-04-30T15:01:26.293Z,89.00
2019-04-30T15:03:54.717Z,90.40
2019-04-30T15:06:23.188Z,90.10
2019-04-30T15:08:51.969Z,89.40
2019-04-30T15:11:24.958Z,89.80
2019-04-30T15:13:52.953Z,90.00
2019-04-30T15:16:22.117Z,88.80
2019-04-30T15:18:50.604Z,89.60
2019-04-30T15:21:19.263Z,89.70
2019-04-30T15:23:59.409Z,89.10
2019-04-30T15:26:28.732Z,88.50
2019-04-30T15:29:00.104Z,87.20
2019-04-30T15:31:29.664Z,84.70
2019-04-30T15:34:02.946Z,87.00
2019-04-30T15:36:29.948Z,88.90
2019-04-30T15:39:15.309Z,88.70
2019-04-30T15:41:43.928Z,90.00
2019-04-30T15:44:12.930Z,89.30
2019-04-30T15:46:41.486Z,89.50
2019-04-30T15:49:09.942Z,89.90
2019-04-30T15:51:38.469Z,88.90
2019-04-30T15:54:06.972Z,90.60
2019-04-30T15:56:39.964Z,90.70
2019-04-30T15:59:21.276Z,90.80
2019-04-30T16:01:51.296Z,90.20
2019-04-30T16:04:21.037Z,90.80
2019-04-30T16:06:50.163Z,90.60
2019-04-30T16:09:38.392Z,90.50
2019-04-30T16:12:09.223Z,91.10
2019-04-30T16:14:39.737Z,90.40
2019-04-30T16:17:15.747Z,90.40
2019-04-30T16:19:45.974Z,90.90
2019-04-30T16:22:15.311Z,91.00
2019-04-30T16:24:44.436Z,90.90
2019-04-30T16:27:19.144Z,90.80
2019-04-30T16:29:49.828Z,91.30
2019-04-30T16:32:19.168Z,91.30
2019-04-30T16:34:49.434Z,91.80
2019-04-30T16:37:20.760Z,92.60
2019-04-30T16:39:48.842Z,91.70
2019-04-30T16:42:18.893Z,92.70
2019-04-30T16:44:47.535Z,92.20
2019-04-30T16:47:16.937Z,92.40
2019-04-30T16:49:45.731Z,92.00
2019-04-30T16:52:14.126Z,92.60
2019-04-30T16:54:42.566Z,93.00
2019-04-30T16:57:11.045Z,93.10
2019-04-30T16:59:41.359Z,93.10
2019-04-30T17:02:09.925Z,93.00
2019-04-30T17:04:49.584Z,93.60
2019-04-30T17:07:19.680Z,92.50
2019-04-30T17:09:59.097Z,94.00
2019-04-30T17:12:38.650Z,94.80
2019-04-30T17:15:14.484Z,93.70
2019-04-30T17:17:44.391Z,94.40
2019-04-30T17:20:14.915Z,96.10
2019-04-30T17:22:45.287Z,97.10
2019-04-30T17:25:15.353Z,97.00
2019-04-30T17:27:45.123Z,97.20
2019-04-30T17:30:19.216Z,97.70
2019-04-30T17:32:50.653Z,97.80
2019-04-30T17:35:20.337Z,97.80
2019-04-30T17:37:49.227Z,97.90
2019-04-30T17:42:54.459Z,98.40
2019-04-30T17:45:23.518Z,98.40
2019-04-30T17:47:52.397Z,98.60
2019-04-30T17:50:22.408Z,98.80
2019-04-30T17:52:52.339Z,98.60
2019-04-30T17:55:21.397Z,98.80
2019-04-30T17:57:49.957Z,98.70
2019-04-30T18:00:22.173Z,98.70
2019-04-30T18:02:50.280Z,98.70
2019-04-30T18:05:19.449Z,99.00
2019-04-30T18:07:49.771Z,99.50
2019-04-30T18:10:23.792Z,99.50
2019-04-30T18:12:52.559Z,99.50
2019-04-30T18:15:23.417Z,99.30
2019-04-30T18:17:57.919Z,99.40
2019-04-30T18:20:30.699Z,99.70
2019-04-30T18:23:01.085Z,99.90
2019-04-30T18:25:34.992Z,99.90
2019-04-30T18:28:09.133Z,99.90
2019-04-30T18:30:39.405Z,99.90
2019-04-30T18:33:09.864Z,99.90
2019-04-30T18:35:38.887Z,99.90
2019-04-30T18:38:09.754Z,99.90
2019-04-30T18:40:39.772Z,99.90
2019-04-30T18:43:09.068Z,99.90
2019-04-30T18:45:41.477Z,99.90
2019-04-30T18:48:10.056Z,99.90
2019-04-30T18:50:40.583Z,99.90
2019-04-30T18:53:13.692Z,99.90
2019-04-30T18:55:42.959Z,99.90
2019-04-30T18:58:12.231Z,99.90
2019-04-30T19:00:43.690Z,99.90
2019-04-30T19:03:12.664Z,99.90
2019-04-30T19:05:42.918Z,99.70
2019-04-30T19:08:13.438Z,99.30
2019-04-30T19:10:49.976Z,99.10
2019-04-30T19:13:35.510Z,99.10
2019-04-30T19:16:19.920Z,98.60
2019-04-30T19:18:52.362Z,98.10
2019-04-30T19:21:21.082Z,99.10
2019-04-30T19:23:51.004Z,98.90
2019-04-30T19:26:22.057Z,99.10
2019-04-30T19:28:57.739Z,98.70
2019-04-30T19:31:29.405Z,99.50
2019-04-30T19:33:58.859Z,99.90
2019-04-30T19:36:35.122Z,99.70
2019-04-30T19:39:03.297Z,99.60
2019-04-30T19:41:40.785Z,99.40
2019-04-30T19:44:09.930Z,99.20
2019-04-30T19:46:45.785Z,99.90
2019-04-30T19:49:16.610Z,99.90
2019-04-30T19:51:53.216Z,99.90
2019-04-30T19:54:21.480Z,99.90
2019-04-30T19:56:55.919Z,99.90
2019-04-30T19:59:29.419Z,99.90
2019-04-30T20:02:02.329Z,99.90
2019-04-30T20:04:36.478Z,99.90
2019-04-30T20:07:04.602Z,99.90
2019-04-30T20:09:33.468Z,99.90
2019-04-30T20:12:01.948Z,99.90
2019-04-30T20:14:30.601Z,99.90
2019-04-30T20:16:59.847Z,99.90
2019-04-30T20:19:30.623Z,99.90
2019-04-30T20:21:59.603Z,99.90
2019-04-30T20:24:29.581Z,99.90
2019-04-30T20:27:04.974Z,99.90
2019-04-30T20:29:28.822Z,99.90
2019-04-30T20:31:58.945Z,99.90
2019-04-30T20:34:29.205Z,99.90
2019-04-30T20:37:00.213Z,99.90
2019-04-30T20:39:36.197Z,99.90
2019-04-30T20:42:04.683Z,99.90
2019-04-30T20:44:33.284Z,99.90
2019-04-30T20:47:02.741Z,99.90
2019-04-30T20:49:31.330Z,99.90
2019-04-30T20:51:59.722Z,99.90
2019-04-30T20:54:29.143Z,99.90
2019-04-30T20:57:01.425Z,99.90
2019-04-30T20:59:30.323Z,99.90
2019-04-30T21:01:59.305Z,99.90
2019-04-30T21:04:28.023Z,99.90
2019-04-30T21:06:56.510Z,99.90
2019-04-30T21:09:24.983Z,99.90
2019-04-30T21:11:53.571Z,99.90
2019-04-30T21:14:22.352Z,99.90
2019-04-30T21:16:50.788Z,99.90
2019-04-30T21:19:19.468Z,99.90
2019-04-30T21:21:49.736Z,99.90
2019-04-30T21:24:18.255Z,99.90
2019-04-30T21:26:46.940Z,99.90
2019-04-30T21:29:16.024Z,99.90
2019-04-30T21:31:49.381Z,99.90
2019-04-30T21:34:19.671Z,99.90
2019-04-30T21:36:49.601Z,99.90
2019-04-30T21:39:20.617Z,99.90
2019-04-30T21:41:54.073Z,99.90
2019-04-30T21:44:24.032Z,99.90
2019-04-30T21:46:52.526Z,99.90
2019-04-30T21:49:21.699Z,99.90
2019-04-30T21:51:57.605Z,99.90
2019-04-30T21:54:26.342Z,99.90
2019-04-30T21:56:55.872Z,99.90
2019-04-30T21:59:25.247Z,99.90
2019-04-30T22:01:55.782Z,99.90
2019-04-30T22:04:24.963Z,99.90
2019-04-30T22:06:55.817Z,99.90
2019-04-30T22:09:24.524Z,99.90
2019-04-30T22:11:53.944Z,99.90
2019-04-30T22:14:23.252Z,99.90
2019-04-30T22:16:52.067Z,99.90
2019-04-30T22:19:21.533Z,99.90
2019-04-30T22:21:51.825Z,99.90
2019-04-30T22:24:28.302Z,99.90
2019-04-30T22:26:56.759Z,99.90
2019-04-30T22:29:39.034Z,99.90
2019-04-30T22:31:59.946Z,99.90
2019-04-30T22:34:31.114Z,99.90
2019-04-30T22:36:59.988Z,99.90
2019-04-30T22:39:32.785Z,99.90
2019-04-30T22:42:19.531Z,99.90
2019-04-30T22:44:50.428Z,99.90
2019-04-30T22:47:19.812Z,99.90
2019-04-30T22:49:48.228Z,99.90
2019-04-30T22:52:16.734Z,99.90
2019-04-30T22:54:45.440Z,99.90
2019-04-30T22:57:15.170Z,99.90
2019-04-30T22:59:49.675Z,99.90
2019-04-30T23:02:21.145Z,99.90
2019-04-30T23:04:51.395Z,99.90
2019-04-30T23:07:20.389Z,99.90
2019-04-30T23:09:49.113Z,99.90
2019-04-30T23:12:19.229Z,99.90
2019-04-30T23:14:48.796Z,99.90
2019-04-30T23:17:19.469Z,99.90
2019-04-30T23:19:49.487Z,99.90
2019-04-30T23:22:19.328Z,99.90
2019-04-30T23:24:47.786Z,99.90
2019-04-30T23:27:17.604Z,99.90
2019-04-30T23:30:03.056Z,99.90
2019-04-30T23:32:25.784Z,99.90
2019-04-30T23:34:54.191Z,99.90
2019-04-30T23:37:23.757Z,99.90
2019-04-30T23:39:52.249Z,99.90
2019-04-30T23:42:22.519Z,99.90
2019-04-30T23:44:51.210Z,99.90
2019-04-30T23:47:20.042Z,99.90
2019-04-30T23:49:48.570Z,99.90
2019-04-30T23:52:17.639Z,99.90
2019-04-30T23:54:46.370Z,99.90
2019-04-30T23:57:17.147Z,99.90
2019-04-30T23:59:45.651Z,99.90
